Smith Reynolds Airport
KINT : now visible

Airfield :











YOU CAN JOIN US ON...

 
LOGIN :

Register | Disclaimer

   EN    FR    IT 

 









Legend :    VFR   Marginal VFR   IFR   Intensive IFR   Very Intensive IFR
Visi :
Ceiling :
>= 8 km
>= 3000ft
5 to 8 km
1000 to 3000 ft
1500m to 5 km
500 to 1000 ft
800 to 1500m
200 to 500 ft
< 800m
< 200 ft
Symbols :   Thunderstorms  Fog  Heavy snow  Heavy precipitations  Wind > 20 kt






- Airport Elevation : 969 ft
- IATA code : INT


KINT - Smith Reynolds

CURRENT METAR :
  • 280733Z AUTO 00000KT 1 3/4SM BR OVC002 15/15 A3016 RMK AO2 T01500150

EXPIRED METARs :
  • 280723Z AUTO 00000KT 3SM BR BKN002 15/15 A3016 RMK AO2 T01500150
  • 280716Z AUTO 00000KT 2 1/2SM BR BKN002 15/15 A3016 RMK AO2 T01500150
  • 280711Z AUTO 00000KT 3/4SM BR VV003 14/14 A3016 RMK AO2 T01440144
  • 280703Z AUTO 00000KT 1SM BR VV004 14/14 A3016 RMK AO2 VIS 1/2V2 1/2 T01390139
  • 280654Z AUTO 00000KT 3SM BR FEW004 14/14 A3016 RMK AO2 SLP206 T01390139
  • 280638Z AUTO 00000KT 2SM BR FEW004 14/14 A3015 RMK AO2 T01390139
  • 280633Z AUTO 00000KT 1SM BR VV004 13/13 A3015 RMK AO2 T01330133
  • 280616Z AUTO 00000KT 3SM BR FEW004 14/14 A3015 RMK AO2 T01390139
  • 280554Z AUTO 00000KT 1 1/4SM BR SCT005 14/14 A3015 RMK AO2 SLP205 T01390139 10172 20133 56011
  • 280528Z AUTO 00000KT 2 1/2SM BR FEW005 14/14 A3016 RMK AO2 VIS 1V5 T01390139
  • 280454Z AUTO 00000KT 5SM BR CLR 14/14 A3016 RMK AO2 SLP207 T01390139 402170122

TAF KINT
Valid from the 28 at 06:00 until the 29 at 06:00 UTC


280558Z 2806/2906 00000KT 1SM BR SCT005
FM280700 VRB02KT 1/2SM FG BKN002
FM281500 23005KT P6SM BKN015
FM290000 19003KT P6SM VCSH BKN008
KZTL FIR / North America



MET'MAP, your aeronautical weather chart ! - Copyright ORBIFLY December 2007 - Disclaimer

ORBIFLY MET'MAP TEAM :

Programming & Development : Alexandra Zaïnal
Concept & original design : Baudouin d'Aumeries
Assistance for programming : Marc-Olivier Méhu
Technical & hardware support : Manuel Goepfert

Contact : metmap@orbifly.com




SOURCES & CREDITS :

   NOAA       Earth
Advisory